Airfield :
LOGIN :

Register | Disclaimer

   EN    FR    IT 

 










Legend :    VFR   Marginal VFR   IFR   Intensive IFR   Very Intensive IFR
Visi :
Ceiling :
>= 8 km
>= 3000ft
5 to 8 km
1000 to 3000 ft
1500m to 5 km
500 to 1000 ft
800 to 1500m
200 to 500 ft
< 800m
< 200 ft
Symbols :   Thunderstorms  Fog  Heavy snow  Heavy precipitations  Wind > 20 kt
SIGMETs :     Misc.  Thunderstorms  Icing  Turbulence  Mountain Waves  Volcanic Ashes







- Airport Elevation : 1411 ft
- IATA code : SZG


LOWS - Salzburg

CURRENT METAR :
  • 180420Z 14003KT CAVOK 15/13 Q1017 NOSIG

EXPIRED METARs :
  • 180350Z 15004KT CAVOK 14/13 Q1017 NOSIG
  • 180320Z AUTO 14003KT 120V180 9999 NSC 13/12 Q1017
  • 180250Z AUTO VRB02KT 9999 NSC 14/13 Q1017
  • 180220Z AUTO 18002KT 9999 NSC 14/13 Q1017
  • 180150Z AUTO 16002KT 9999 NSC 14/13 Q1017

TAF TAF LOWS
Valid from the 18 at 00:00 until the 19 at 00:00 UTC


172315Z 1800/1824 15003KT CAVOK TX28/1814Z TN14/1803Z
BECMG 1807/1809 02005KT 9999 FEW050 BKN300
BECMG 1818/1820 15003KT CAVOK
No reported NOTAMs for that airfield.



MET'MAP, your aeronautical weather chart ! - Copyright ORBIFLY December 2007 - Disclaimer

ORBIFLY MET'MAP TEAM :

Programming & Development : Alexandra Zaïnal
Concept & Development : Baudouin d'Aumeries
Co-Development & Prog : Marc-Olivier Méhu
Technical & hardware support : Manuel Goepfert

Contact : metmap@orbifly.com




SOURCES & CREDITS :

   NOAA